createdAt,value
2023-01-30T00:00:52.136Z,19.35
2023-01-30T00:04:53.892Z,19.48
2023-01-30T00:08:55.691Z,18.83
2023-01-30T00:12:57.352Z,18.48
2023-01-30T00:16:59.027Z,18.67
2023-01-30T00:21:03.497Z,19.35
2023-01-30T00:25:05.876Z,18.90
2023-01-30T00:29:07.691Z,19.95
2023-01-30T00:33:10.203Z,19.35
2023-01-30T00:37:11.948Z,19.62
2023-01-30T00:41:15.183Z,19.50
2023-01-30T00:45:35.229Z,19.27
2023-01-30T00:49:37.706Z,19.00
2023-01-30T00:53:39.602Z,20.42
2023-01-30T00:57:41.675Z,17.90
2023-01-30T01:01:43.688Z,17.98
2023-01-30T01:05:45.716Z,20.30
2023-01-30T01:09:47.467Z,20.58
2023-01-30T01:13:49.129Z,20.62
2023-01-30T01:17:50.840Z,20.85
2023-01-30T01:21:52.578Z,20.50
2023-01-30T01:25:54.328Z,20.42
2023-01-30T01:29:56.042Z,20.30
2023-01-30T01:33:57.828Z,19.35
2023-01-30T01:37:59.596Z,20.52
2023-01-30T01:42:01.308Z,19.85
2023-01-30T01:46:20.958Z,20.37
2023-01-30T01:50:38.651Z,19.30
2023-01-30T01:54:46.973Z,19.52
2023-01-30T01:58:53.722Z,18.83
2023-01-30T02:03:06.773Z,19.17
2023-01-30T02:07:09.394Z,18.58
2023-01-30T02:11:15.011Z,18.45
2023-01-30T02:15:19.339Z,17.08
2023-01-30T02:19:32.313Z,18.73
2023-01-30T02:23:46.099Z,19.77
2023-01-30T02:28:30.175Z,19.50
2023-01-30T02:32:55.438Z,17.98
2023-01-30T02:37:18.393Z,18.98
2023-01-30T02:41:41.243Z,15.05
2023-01-30T02:45:54.165Z,18.75
2023-01-30T02:50:15.110Z,18.92
2023-01-30T02:54:17.083Z,18.60
2023-01-30T02:58:21.760Z,19.67
2023-01-30T03:02:42.003Z,19.70
2023-01-30T03:07:08.784Z,18.27
2023-01-30T03:11:11.537Z,18.25
2023-01-30T03:15:52.385Z,19.60
2023-01-30T03:20:14.803Z,16.35
2023-01-30T03:24:17.079Z,18.60
2023-01-30T03:28:21.174Z,19.00
2023-01-30T03:32:22.863Z,18.05
2023-01-30T03:36:24.585Z,19.05
2023-01-30T03:40:26.512Z,20.15
2023-01-30T03:44:28.252Z,19.12
2023-01-30T03:48:30.015Z,20.58
2023-01-30T03:52:34.148Z,18.58
2023-01-30T03:56:35.796Z,18.77
2023-01-30T04:00:37.565Z,20.10
2023-01-30T04:04:39.318Z,17.58
2023-01-30T04:08:40.979Z,19.85
2023-01-30T04:12:42.957Z,19.30
2023-01-30T04:16:46.384Z,20.15
2023-01-30T04:20:48.150Z,18.95
2023-01-30T04:24:49.834Z,20.05
2023-01-30T04:28:51.624Z,18.23
2023-01-30T04:32:53.297Z,18.95
2023-01-30T04:36:54.948Z,20.23
2023-01-30T04:40:57.780Z,19.25
2023-01-30T04:44:59.588Z,19.87
2023-01-30T04:49:01.281Z,20.67
2023-01-30T04:53:03.056Z,19.35
2023-01-30T04:57:04.799Z,20.40
2023-01-30T05:01:14.997Z,18.00
2023-01-30T05:05:17.486Z,18.23
2023-01-30T05:09:19.332Z,20.00
2023-01-30T05:13:21.099Z,18.12
2023-01-30T05:17:23.063Z,19.48
2023-01-30T05:21:28.399Z,20.50
2023-01-30T05:25:30.171Z,19.33
2023-01-30T05:29:31.828Z,17.83
2023-01-30T05:33:34.014Z,18.23
2023-01-30T05:37:35.697Z,18.00
2023-01-30T05:41:37.516Z,18.15
2023-01-30T05:45:39.581Z,17.58
2023-01-30T05:49:41.731Z,17.55
2023-01-30T05:53:43.471Z,16.12
2023-01-30T05:57:45.156Z,15.45
2023-01-30T06:01:46.894Z,10.60
2023-01-30T06:05:48.587Z,15.13
2023-01-30T06:09:50.418Z,15.23
2023-01-30T06:13:52.230Z,15.95
2023-01-30T06:17:53.983Z,15.60
2023-01-30T06:21:55.813Z,14.50
2023-01-30T06:25:57.526Z,15.48
2023-01-30T06:29:59.199Z,15.10
2023-01-30T06:34:00.927Z,14.10
2023-01-30T06:38:02.563Z,15.77
2023-01-30T06:42:04.535Z,13.48
2023-01-30T06:46:06.161Z,15.65
2023-01-30T06:50:08.221Z,15.32
2023-01-30T06:54:09.894Z,13.73
2023-01-30T06:58:13.114Z,14.95
2023-01-30T07:02:14.836Z,15.35
2023-01-30T07:06:16.574Z,15.25
2023-01-30T07:10:18.688Z,15.20
2023-01-30T07:14:20.339Z,15.77
2023-01-30T07:18:21.933Z,15.60
2023-01-30T07:22:23.590Z,15.52
2023-01-30T07:26:25.313Z,15.40
2023-01-30T07:30:28.812Z,16.15
2023-01-30T07:34:30.574Z,17.00
2023-01-30T07:38:32.243Z,15.60
2023-01-30T07:42:33.866Z,16.08
2023-01-30T07:46:35.847Z,17.37
2023-01-30T07:50:37.623Z,15.75
2023-01-30T07:54:39.265Z,17.00
2023-01-30T07:58:40.972Z,16.40
2023-01-30T08:02:42.673Z,15.98
2023-01-30T08:06:44.608Z,13.02
2023-01-30T08:10:49.344Z,13.65
2023-01-30T08:14:50.956Z,13.05
2023-01-30T08:18:52.688Z,13.45
2023-01-30T08:22:54.852Z,12.35
2023-01-30T08:26:56.499Z,12.13
2023-01-30T08:30:58.623Z,13.50
2023-01-30T08:35:00.403Z,13.88
2023-01-30T08:39:02.077Z,13.68
2023-01-30T08:43:04.483Z,13.18
2023-01-30T08:47:06.173Z,11.75
2023-01-30T08:51:07.912Z,13.02
2023-01-30T08:55:10.274Z,11.43
2023-01-30T08:59:11.990Z,11.52
2023-01-30T09:03:15.229Z,9.77
2023-01-30T09:07:17.044Z,9.05
2023-01-30T09:11:18.808Z,7.15
2023-01-30T09:15:20.494Z,6.47
2023-01-30T09:19:23.697Z,5.47
2023-01-30T09:23:25.361Z,3.75
2023-01-30T09:27:27.294Z,4.47
2023-01-30T09:31:29.152Z,3.95
2023-01-30T09:35:30.988Z,3.10
2023-01-30T09:39:32.734Z,4.00
2023-01-30T09:43:37.351Z,3.70
2023-01-30T09:48:09.641Z,2.55
2023-01-30T09:52:18.293Z,2.20
2023-01-30T09:56:20.723Z,2.87
2023-01-30T10:00:39.362Z,2.45
2023-01-30T10:05:00.095Z,2.62
2023-01-30T10:09:28.595Z,2.85
2023-01-30T10:18:17.924Z,2.67
2023-01-30T10:22:31.637Z,2.58
2023-01-30T10:26:34.072Z,2.15
2023-01-30T10:30:36.019Z,2.72
2023-01-30T10:34:44.645Z,2.42
2023-01-30T10:38:52.491Z,2.10
2023-01-30T10:43:25.660Z,1.65
2023-01-30T10:47:46.567Z,2.22
2023-01-30T10:52:11.373Z,2.62
2023-01-30T10:56:19.408Z,2.95
2023-01-30T11:00:31.011Z,1.62
2023-01-30T11:04:52.241Z,2.00
2023-01-30T11:08:55.809Z,2.08
2023-01-30T11:13:21.969Z,2.25
2023-01-30T11:17:35.105Z,1.87
2023-01-30T11:21:43.833Z,3.00
2023-01-30T11:26:05.698Z,2.35
2023-01-30T11:30:14.620Z,2.37
2023-01-30T11:34:18.131Z,2.20
2023-01-30T11:38:25.941Z,2.37
2023-01-30T11:42:31.760Z,2.87
2023-01-30T11:46:39.118Z,2.30
2023-01-30T11:50:45.060Z,2.37
2023-01-30T11:54:54.108Z,2.90
2023-01-30T11:58:58.703Z,2.45
2023-01-30T12:03:05.285Z,2.22
2023-01-30T12:07:17.113Z,1.75
2023-01-30T12:11:36.972Z,1.90
2023-01-30T12:15:39.960Z,2.00
2023-01-30T12:20:05.610Z,2.25
2023-01-30T12:24:20.171Z,1.83
2023-01-30T12:28:35.415Z,1.75
2023-01-30T12:32:37.353Z,2.28
2023-01-30T12:37:12.357Z,1.75
2023-01-30T12:41:56.070Z,2.05
2023-01-30T12:45:57.733Z,2.22
2023-01-30T12:50:14.463Z,2.47
2023-01-30T12:54:45.819Z,2.63
2023-01-30T12:59:07.417Z,1.90
2023-01-30T13:03:34.719Z,2.30
2023-01-30T13:07:47.783Z,2.17
2023-01-30T13:12:03.612Z,2.12
2023-01-30T13:16:48.786Z,1.65
2023-01-30T13:20:53.605Z,2.03
2023-01-30T13:25:01.236Z,2.08
2023-01-30T13:29:11.804Z,2.22
2023-01-30T13:33:21.738Z,2.25
2023-01-30T13:37:23.412Z,2.30
2023-01-30T13:41:25.340Z,2.40
2023-01-30T13:45:30.790Z,2.40
2023-01-30T13:50:11.252Z,2.42
2023-01-30T13:54:47.287Z,1.80
2023-01-30T13:59:00.881Z,1.55
2023-01-30T14:03:08.947Z,1.85
2023-01-30T14:07:16.013Z,2.35
2023-01-30T14:11:42.308Z,2.87
2023-01-30T14:16:15.461Z,2.67
2023-01-30T14:20:20.732Z,2.80
2023-01-30T14:24:25.027Z,2.70
2023-01-30T14:28:29.513Z,2.72
2023-01-30T14:32:51.483Z,2.50
2023-01-30T14:36:54.009Z,2.58
2023-01-30T14:40:58.859Z,2.75
2023-01-30T14:45:13.501Z,2.85
2023-01-30T14:49:33.366Z,2.30
2023-01-30T14:53:37.001Z,2.30
2023-01-30T14:57:39.944Z,2.85
2023-01-30T15:02:05.870Z,1.87
2023-01-30T15:06:07.744Z,2.87
2023-01-30T15:10:37.585Z,2.70
2023-01-30T15:14:59.037Z,3.20
2023-01-30T15:19:19.373Z,2.83
2023-01-30T15:23:50.384Z,3.10
2023-01-30T15:28:30.397Z,2.92
2023-01-30T15:32:33.390Z,3.45
2023-01-30T15:36:37.026Z,3.30
2023-01-30T15:40:40.916Z,3.53
2023-01-30T15:45:03.724Z,3.28
2023-01-30T15:49:24.217Z,2.50
2023-01-30T15:53:32.329Z,3.05
2023-01-30T15:57:38.739Z,2.62
2023-01-30T16:01:40.451Z,3.35
2023-01-30T16:05:55.169Z,3.62
2023-01-30T16:10:07.327Z,3.08
2023-01-30T16:14:14.599Z,3.30
2023-01-30T16:18:28.366Z,3.50
2023-01-30T16:22:33.944Z,4.10
2023-01-30T16:26:40.437Z,3.15
2023-01-30T16:30:42.543Z,4.03
2023-01-30T16:34:44.250Z,3.03
2023-01-30T16:38:47.329Z,2.90
2023-01-30T16:42:59.061Z,3.15
2023-01-30T16:47:28.740Z,2.72
2023-01-30T16:51:31.074Z,3.03
2023-01-30T16:55:33.002Z,2.85
2023-01-30T16:59:35.750Z,3.00
2023-01-30T17:03:42.279Z,3.30
2023-01-30T17:07:44.680Z,3.25
2023-01-30T17:11:46.334Z,3.87
2023-01-30T17:15:48.099Z,3.70
2023-01-30T17:19:49.810Z,4.12
2023-01-30T17:23:55.694Z,4.55
2023-01-30T17:27:58.424Z,3.25
2023-01-30T17:32:00.839Z,4.57
2023-01-30T17:36:05.891Z,3.37
2023-01-30T17:40:19.227Z,4.00
2023-01-30T17:44:21.112Z,4.18
2023-01-30T17:48:22.810Z,4.40
2023-01-30T17:52:24.558Z,3.50
2023-01-30T17:56:38.343Z,3.33
2023-01-30T18:00:40.161Z,3.55
2023-01-30T18:04:41.819Z,3.25
2023-01-30T18:08:43.506Z,3.35
2023-01-30T18:12:45.472Z,3.40
2023-01-30T18:16:47.475Z,3.08
2023-01-30T18:20:49.252Z,3.47
2023-01-30T18:24:50.870Z,3.95
2023-01-30T18:28:53.377Z,4.05
2023-01-30T18:32:55.852Z,4.65
2023-01-30T18:36:57.545Z,5.53
2023-01-30T18:40:59.368Z,3.72
2023-01-30T18:45:01.030Z,4.05
2023-01-30T18:49:02.823Z,4.65
2023-01-30T18:53:05.068Z,4.68
2023-01-30T18:57:06.716Z,4.37
2023-01-30T19:01:14.898Z,4.10
2023-01-30T19:05:16.777Z,3.95
2023-01-30T19:09:18.988Z,3.17
2023-01-30T19:13:32.944Z,4.07
2023-01-30T19:17:34.657Z,6.28
2023-01-30T19:21:36.774Z,5.05
2023-01-30T19:25:38.471Z,5.82
2023-01-30T19:29:41.469Z,4.35
2023-01-30T19:33:44.945Z,4.07
2023-01-30T19:37:46.602Z,3.50
2023-01-30T19:41:48.221Z,4.32
2023-01-30T19:45:59.805Z,5.32
2023-01-30T19:50:01.649Z,7.07
2023-01-30T19:54:08.111Z,4.62
2023-01-30T19:58:09.808Z,4.03
2023-01-30T20:02:12.522Z,4.68
2023-01-30T20:06:17.129Z,3.87
2023-01-30T20:10:19.134Z,4.18
2023-01-30T20:14:20.985Z,10.75
2023-01-30T20:18:22.628Z,4.75
2023-01-30T20:22:24.424Z,5.53
2023-01-30T20:26:32.365Z,8.27
2023-01-30T20:30:34.019Z,8.48
2023-01-30T20:34:35.766Z,5.97
2023-01-30T20:38:39.737Z,4.10
2023-01-30T20:42:41.415Z,4.18
2023-01-30T20:46:45.688Z,3.67
2023-01-30T20:50:47.391Z,4.45
2023-01-30T20:54:49.163Z,4.93
2023-01-30T20:58:51.246Z,4.75
2023-01-30T21:02:52.965Z,4.30
2023-01-30T21:06:54.755Z,4.10
2023-01-30T21:11:04.891Z,4.85
2023-01-30T21:15:07.079Z,3.83
2023-01-30T21:19:12.945Z,3.85
2023-01-30T21:23:16.035Z,3.55
2023-01-30T21:27:17.684Z,3.22
2023-01-30T21:31:22.738Z,2.78
2023-01-30T21:35:24.413Z,2.97
2023-01-30T21:39:45.151Z,2.83
2023-01-30T21:43:48.877Z,3.33
2023-01-30T21:47:51.612Z,2.92
2023-01-30T21:51:53.366Z,3.00
2023-01-30T21:55:55.734Z,3.25
2023-01-30T21:59:57.469Z,3.30
2023-01-30T22:04:00.357Z,3.55
2023-01-30T22:08:02.924Z,4.05
2023-01-30T22:12:05.324Z,3.70
2023-01-30T22:16:12.626Z,3.83
2023-01-30T22:20:14.374Z,6.70
2023-01-30T22:24:16.043Z,3.67
2023-01-30T22:28:17.756Z,3.83
2023-01-30T22:32:19.527Z,4.15
2023-01-30T22:36:24.662Z,3.92
2023-01-30T22:40:26.375Z,3.45
2023-01-30T22:44:28.105Z,4.80
2023-01-30T22:48:30.255Z,4.53
2023-01-30T22:52:31.973Z,4.18
2023-01-30T22:56:40.679Z,3.47
2023-01-30T23:00:42.413Z,5.85
2023-01-30T23:04:44.351Z,3.33
2023-01-30T23:08:48.225Z,4.93
2023-01-30T23:13:06.197Z,3.92
2023-01-30T23:17:26.338Z,4.05
2023-01-30T23:21:37.176Z,5.50
2023-01-30T23:25:42.456Z,4.60
2023-01-30T23:29:44.339Z,3.47
2023-01-30T23:33:46.321Z,4.25
2023-01-30T23:38:06.368Z,3.50
2023-01-30T23:42:08.074Z,3.22
2023-01-30T23:46:33.692Z,4.50
2023-01-30T23:50:39.927Z,3.08
2023-01-30T23:54:41.559Z,3.90
2023-01-30T23:58:44.615Z,3.67
